createdAt,value
2022-09-15T00:06:18.229Z,19.20
2022-09-15T00:08:49.759Z,18.30
2022-09-15T00:11:19.500Z,19.70
2022-09-15T00:13:48.024Z,19.00
2022-09-15T00:16:20.544Z,19.70
2022-09-15T00:18:49.235Z,19.70
2022-09-15T00:21:20.383Z,19.70
2022-09-15T00:23:50.653Z,19.80
2022-09-15T00:26:24.617Z,19.70
2022-09-15T00:28:53.507Z,19.60
2022-09-15T00:31:23.639Z,19.70
2022-09-15T00:33:55.284Z,19.50
2022-09-15T00:36:24.465Z,19.70
2022-09-15T00:38:54.051Z,19.70
2022-09-15T00:41:24.324Z,19.20
2022-09-15T00:43:55.049Z,19.80
2022-09-15T00:46:24.964Z,19.70
2022-09-15T00:49:00.715Z,19.70
2022-09-15T00:51:36.672Z,19.80
2022-09-15T00:54:10.501Z,19.80
2022-09-15T00:56:39.385Z,19.80
2022-09-15T00:59:12.385Z,19.70
2022-09-15T01:01:41.846Z,19.70
2022-09-15T01:06:42.168Z,19.70
2022-09-15T01:09:19.024Z,19.70
2022-09-15T01:16:57.508Z,19.00
2022-09-15T01:20:04.824Z,19.60
2022-09-15T01:22:37.959Z,19.60
2022-09-15T01:25:20.621Z,24.20
2022-09-15T01:28:17.646Z,19.60
2022-09-15T01:30:52.039Z,19.60
2022-09-15T01:33:29.060Z,19.60
2022-09-15T01:36:03.715Z,19.60
2022-09-15T01:38:41.413Z,18.30
2022-09-15T01:41:16.482Z,19.60
2022-09-15T01:43:50.299Z,19.70
2022-09-15T01:46:24.064Z,19.60
2022-09-15T01:48:56.009Z,19.60
2022-09-15T01:51:25.689Z,19.60
2022-09-15T01:53:55.651Z,19.60
2022-09-15T02:01:32.138Z,19.60
2022-09-15T02:04:04.382Z,19.50
2022-09-15T02:06:39.771Z,19.30
2022-09-15T02:09:14.704Z,19.60
2022-09-15T02:11:53.069Z,19.60
2022-09-15T02:14:36.867Z,18.80
2022-09-15T02:17:06.672Z,24.20
2022-09-15T02:19:41.844Z,17.80
2022-09-15T02:22:17.713Z,19.50
2022-09-15T02:24:51.261Z,19.60
2022-09-15T02:27:24.128Z,19.50
2022-09-15T02:29:54.881Z,18.10
2022-09-15T02:32:27.562Z,19.50
2022-09-15T02:34:58.486Z,17.60
2022-09-15T02:39:58.663Z,19.40
2022-09-15T02:44:55.503Z,18.10
2022-09-15T02:47:25.557Z,19.10
2022-09-15T02:57:19.883Z,18.90
2022-09-15T03:02:35.417Z,19.40
2022-09-15T03:07:32.007Z,23.60
2022-09-15T03:19:55.150Z,19.00
2022-09-15T03:22:23.086Z,17.40
2022-09-15T03:24:52.628Z,19.30
2022-09-15T03:37:16.148Z,19.10
2022-09-15T03:39:44.326Z,18.50
2022-09-15T03:42:12.477Z,17.20
2022-09-15T03:47:09.236Z,18.50
2022-09-15T03:52:05.786Z,17.60
2022-09-15T03:54:35.454Z,19.00
2022-09-15T04:09:26.237Z,18.90
2022-09-15T04:11:55.618Z,19.00
2022-09-15T04:16:52.332Z,16.70
2022-09-15T04:21:48.885Z,17.90
2022-09-15T04:24:20.829Z,18.90
2022-09-15T04:29:18.855Z,18.90
2022-09-15T04:39:44.792Z,18.90
2022-09-15T04:44:43.057Z,19.00
2022-09-15T04:49:45.776Z,17.90
2022-09-15T04:59:47.565Z,19.00
2022-09-15T05:04:46.622Z,18.60
2022-09-15T05:07:16.695Z,16.80
2022-09-15T05:12:28.049Z,19.00
2022-09-15T05:14:57.531Z,19.00
2022-09-15T05:32:18.899Z,19.00
2022-09-15T05:47:30.990Z,19.00
2022-09-15T05:57:34.535Z,18.90
2022-09-15T06:00:12.314Z,19.00
2022-09-15T06:03:08.248Z,19.40
2022-09-15T06:05:49.243Z,19.10
2022-09-15T06:13:15.869Z,18.60
2022-09-15T06:15:43.830Z,18.20
2022-09-15T06:18:13.835Z,19.10
2022-09-15T06:30:40.761Z,19.10
2022-09-15T06:35:38.879Z,19.10
2022-09-15T06:43:05.504Z,19.10
2022-09-15T06:45:33.599Z,18.70
2022-09-15T06:50:56.308Z,18.70
2022-09-15T07:08:17.168Z,19.20
2022-09-15T07:15:51.426Z,19.20
2022-09-15T07:23:18.097Z,19.20
2022-09-15T07:25:46.659Z,17.20
2022-09-15T07:30:45.199Z,19.20
2022-09-15T07:33:18.053Z,19.20
2022-09-15T07:40:46.013Z,18.80
2022-09-15T07:43:13.926Z,17.80
2022-09-15T07:45:42.519Z,23.80
2022-09-15T07:48:10.498Z,17.10
2022-09-15T07:50:38.407Z,19.70
2022-09-15T07:53:06.964Z,18.30
2022-09-15T07:55:34.970Z,17.40
2022-09-15T07:58:34.603Z,19.60
2022-09-15T08:01:45.032Z,19.40
2022-09-15T08:04:37.531Z,24.00
2022-09-15T08:07:09.872Z,19.50
2022-09-15T08:09:46.270Z,18.00
2022-09-15T08:12:19.673Z,19.60
2022-09-15T08:15:06.620Z,19.70
2022-09-15T08:18:23.706Z,24.40
2022-09-15T08:20:51.915Z,24.20
2022-09-15T08:23:31.957Z,18.20
2022-09-15T08:26:00.329Z,19.70
2022-09-15T08:28:28.756Z,18.20
2022-09-15T08:31:01.515Z,20.00
2022-09-15T08:33:30.348Z,20.10
2022-09-15T08:36:03.121Z,20.00
2022-09-15T08:41:06.653Z,20.20
2022-09-15T08:43:40.250Z,20.30
2022-09-15T08:46:14.510Z,20.30
2022-09-15T08:48:47.282Z,20.40
2022-09-15T08:51:22.146Z,20.40
2022-09-15T08:53:54.382Z,20.50
2022-09-15T09:01:44.144Z,20.60
2022-09-15T09:04:25.432Z,20.70
2022-09-15T09:07:13.964Z,20.70
2022-09-15T09:09:48.077Z,20.80
2022-09-15T09:12:33.636Z,20.80
2022-09-15T09:15:17.716Z,20.90
2022-09-15T09:18:12.703Z,20.90
2022-09-15T09:21:02.233Z,20.90
2022-09-15T09:23:41.522Z,21.00
2022-09-15T09:26:16.225Z,21.00
2022-09-15T09:28:50.442Z,21.00
2022-09-15T09:31:22.825Z,22.50
2022-09-15T09:33:57.375Z,21.00
2022-09-15T09:39:15.108Z,21.00
2022-09-15T09:41:43.790Z,19.70
2022-09-15T09:44:14.752Z,21.10
2022-09-15T09:46:47.461Z,21.20
2022-09-15T09:49:23.110Z,21.20
2022-09-15T09:51:53.083Z,21.20
2022-09-15T09:54:25.062Z,21.20
2022-09-15T09:56:57.677Z,21.30
2022-09-15T09:59:40.896Z,21.20
2022-09-15T10:02:19.810Z,21.20
2022-09-15T10:04:54.246Z,21.20
2022-09-15T10:07:24.539Z,24.60
2022-09-15T10:09:59.335Z,19.00
2022-09-15T10:12:32.153Z,21.20
2022-09-15T10:15:03.395Z,21.20
2022-09-15T10:17:42.934Z,21.20
2022-09-15T10:20:35.863Z,21.20
2022-09-15T10:23:07.475Z,21.30
2022-09-15T10:25:58.620Z,21.30
2022-09-15T10:28:27.669Z,21.40
2022-09-15T10:31:19.187Z,21.40
2022-09-15T10:36:37.665Z,21.40
2022-09-15T10:39:18.680Z,20.00
2022-09-15T10:41:55.053Z,21.30
2022-09-15T10:44:32.957Z,21.20
2022-09-15T10:47:15.364Z,21.20
2022-09-15T10:50:03.966Z,21.20
2022-09-15T10:52:45.498Z,21.10
2022-09-15T10:55:51.598Z,25.30
2022-09-15T10:58:57.503Z,18.90
2022-09-15T11:01:55.630Z,21.00
2022-09-15T11:04:47.068Z,21.00
2022-09-15T11:07:21.520Z,21.00
2022-09-15T11:09:57.558Z,21.00
2022-09-15T11:12:44.602Z,20.90
2022-09-15T11:15:25.075Z,21.00
2022-09-15T11:18:17.962Z,21.00
2022-09-15T11:21:04.830Z,21.00
2022-09-15T11:23:36.250Z,21.00
2022-09-15T11:26:13.231Z,20.10
2022-09-15T11:28:47.378Z,21.00
2022-09-15T11:31:19.515Z,21.00
2022-09-15T11:33:51.930Z,21.10
2022-09-15T11:36:24.160Z,21.10
2022-09-15T11:38:57.814Z,21.20
2022-09-15T11:41:34.494Z,21.30
2022-09-15T11:44:16.188Z,21.30
2022-09-15T11:47:01.713Z,19.40
2022-09-15T11:49:34.657Z,21.30
2022-09-15T11:52:09.994Z,21.30
2022-09-15T11:54:44.028Z,21.20
2022-09-15T11:57:19.148Z,21.20
2022-09-15T11:59:53.677Z,21.20
2022-09-15T12:02:30.414Z,21.10
2022-09-15T12:05:07.707Z,21.00
2022-09-15T12:07:43.230Z,20.90
2022-09-15T12:10:18.846Z,20.90
2022-09-15T12:12:51.461Z,20.90
2022-09-15T12:15:30.547Z,20.90
2022-09-15T12:18:27.349Z,21.00
2022-09-15T12:21:03.006Z,20.90
2022-09-15T12:23:36.212Z,21.00
2022-09-15T12:26:17.484Z,19.10
2022-09-15T12:29:02.623Z,20.90
2022-09-15T12:31:37.154Z,20.20
2022-09-15T12:34:30.550Z,20.70
2022-09-15T12:37:09.863Z,20.60
2022-09-15T12:39:43.082Z,20.70
2022-09-15T12:42:23.132Z,20.60
2022-09-15T12:45:00.347Z,20.70
2022-09-15T12:47:32.797Z,20.70
2022-09-15T12:50:09.978Z,20.80
2022-09-15T12:52:51.744Z,20.90
2022-09-15T12:55:22.734Z,21.00
2022-09-15T12:57:54.564Z,21.20
2022-09-15T13:01:13.943Z,19.60
2022-09-15T13:04:21.720Z,21.40
2022-09-15T13:07:24.944Z,21.50
2022-09-15T13:09:59.059Z,21.70
2022-09-15T13:12:32.632Z,21.70
2022-09-15T13:15:03.499Z,21.80
2022-09-15T13:17:35.173Z,26.40
2022-09-15T13:20:11.933Z,21.90
2022-09-15T13:22:46.213Z,21.90
2022-09-15T13:25:20.306Z,21.20
2022-09-15T13:27:54.900Z,21.70
2022-09-15T13:30:41.389Z,21.70
2022-09-15T13:39:49.337Z,21.00
2022-09-15T13:42:35.552Z,21.10
2022-09-15T13:45:32.961Z,20.40
2022-09-15T13:48:17.984Z,20.80
2022-09-15T13:50:55.387Z,20.70
2022-09-15T13:53:43.077Z,20.10
2022-09-15T13:56:17.775Z,20.40
2022-09-15T14:04:01.853Z,20.10
2022-09-15T14:06:36.141Z,20.10
2022-09-15T14:09:10.264Z,19.90
2022-09-15T14:11:39.631Z,19.90
2022-09-15T14:14:12.676Z,20.60
2022-09-15T14:19:33.621Z,19.90
2022-09-15T14:27:10.709Z,20.10
2022-09-15T14:29:42.467Z,18.30
2022-09-15T14:32:15.778Z,20.20
2022-09-15T14:34:49.319Z,18.30
2022-09-15T14:37:24.467Z,20.20
2022-09-15T14:39:56.632Z,20.20
2022-09-15T14:42:30.480Z,20.10
2022-09-15T14:48:09.928Z,20.10
2022-09-15T14:50:40.028Z,17.80
2022-09-15T14:53:13.930Z,19.90
2022-09-15T14:55:51.388Z,19.80
2022-09-15T14:58:23.015Z,19.70
2022-09-15T15:00:58.564Z,19.60
2022-09-15T15:03:35.521Z,19.50
2022-09-15T15:06:32.292Z,19.40
2022-09-15T15:09:06.790Z,19.40
2022-09-15T15:11:39.087Z,19.30
2022-09-15T15:14:09.845Z,19.20
2022-09-15T15:17:00.593Z,19.20
2022-09-15T15:19:34.528Z,19.10
2022-09-15T15:22:21.141Z,19.10
2022-09-15T15:24:53.932Z,19.00
2022-09-15T15:27:55.262Z,19.00
2022-09-15T15:30:50.929Z,23.70
2022-09-15T15:33:29.222Z,19.00
2022-09-15T15:36:12.158Z,19.00
2022-09-15T15:38:54.334Z,18.90
2022-09-15T15:41:28.032Z,18.90
2022-09-15T15:44:10.832Z,18.80
2022-09-15T15:46:53.733Z,18.70
2022-09-15T15:49:25.897Z,16.60
2022-09-15T15:51:54.913Z,19.30
2022-09-15T15:54:25.184Z,18.70
2022-09-15T15:56:53.965Z,18.70
2022-09-15T16:01:53.754Z,18.60
2022-09-15T16:04:21.875Z,18.10
2022-09-15T16:09:20.921Z,18.60
2022-09-15T16:11:52.830Z,18.60
2022-09-15T16:27:04.481Z,16.50
2022-09-15T16:29:36.282Z,17.10
2022-09-15T16:32:05.533Z,17.30
2022-09-15T16:34:33.527Z,16.50
2022-09-15T16:37:01.566Z,16.40
2022-09-15T16:44:34.527Z,17.30
2022-09-15T16:59:38.976Z,18.20
2022-09-15T17:02:13.871Z,18.40
2022-09-15T17:12:09.568Z,18.40
2022-09-15T17:14:39.046Z,18.20
2022-09-15T17:17:17.410Z,17.00
2022-09-15T17:22:14.017Z,16.60
2022-09-15T17:27:10.557Z,17.30
2022-09-15T17:29:42.622Z,18.00
2022-09-15T17:47:07.511Z,17.80
2022-09-15T17:59:35.381Z,17.70
2022-09-15T18:02:03.611Z,16.60
2022-09-15T18:04:33.230Z,17.70
2022-09-15T18:21:55.263Z,17.50
2022-09-15T18:34:22.349Z,17.20
2022-09-15T18:36:50.392Z,15.40
2022-09-15T18:39:19.752Z,22.20
2022-09-15T18:46:50.612Z,16.50
2022-09-15T18:49:18.887Z,17.00
2022-09-15T18:54:21.283Z,16.30
2022-09-15T19:11:41.543Z,17.20
2022-09-15T19:24:22.862Z,14.90
2022-09-15T19:26:56.423Z,17.00
2022-09-15T19:34:22.163Z,20.40
2022-09-15T19:41:47.251Z,15.40
2022-09-15T19:44:17.080Z,16.80
2022-09-15T19:46:45.351Z,14.80
2022-09-15T19:51:41.924Z,21.60
2022-09-15T19:59:08.392Z,16.30
2022-09-15T20:01:38.012Z,16.80
2022-09-15T20:06:34.537Z,15.30
2022-09-15T20:11:31.811Z,16.80
2022-09-15T20:18:58.275Z,16.70
2022-09-15T20:21:48.581Z,16.70
2022-09-15T20:24:16.713Z,15.60
2022-09-15T20:26:44.893Z,14.50
2022-09-15T20:34:11.678Z,16.60
2022-09-15T20:39:13.211Z,20.90
2022-09-15T20:41:42.058Z,16.60
2022-09-15T20:44:12.752Z,15.20
2022-09-15T20:51:39.561Z,16.50
2022-09-15T20:56:38.237Z,16.40
2022-09-15T21:01:39.954Z,16.30
2022-09-15T21:04:09.547Z,16.30
2022-09-15T21:09:08.022Z,16.20
2022-09-15T21:11:36.492Z,16.20
2022-09-15T21:21:31.832Z,16.20
2022-09-15T21:24:03.661Z,16.20
2022-09-15T21:27:05.312Z,16.10
2022-09-15T21:42:05.254Z,15.90
2022-09-15T21:49:31.351Z,15.80
2022-09-15T21:56:56.786Z,14.50
2022-09-15T21:59:26.324Z,15.70
2022-09-15T22:11:49.780Z,14.90
2022-09-15T22:16:47.987Z,15.60
2022-09-15T22:24:14.717Z,14.20
2022-09-15T22:26:43.826Z,15.60
2022-09-15T22:34:11.650Z,15.60
2022-09-15T22:41:38.018Z,14.00
2022-09-15T22:44:06.851Z,14.80
2022-09-15T22:46:35.476Z,15.70
2022-09-15T22:51:33.386Z,15.70
2022-09-15T22:54:03.088Z,15.10
2022-09-15T22:58:59.862Z,20.40
2022-09-15T23:01:30.608Z,15.80
2022-09-15T23:04:00.649Z,15.80
2022-09-15T23:06:31.624Z,15.80
2022-09-15T23:09:03.353Z,15.20
2022-09-15T23:14:02.249Z,14.40
2022-09-15T23:16:32.324Z,20.60
2022-09-15T23:21:30.153Z,14.60
2022-09-15T23:26:28.862Z,14.70
2022-09-15T23:36:22.300Z,15.30
2022-09-15T23:41:19.856Z,14.10
2022-09-15T23:43:49.317Z,19.00
2022-09-15T23:51:14.717Z,15.30
